sensor_id;sensor_type;location;lat;lon;timestamp;P1;durP1;ratioP1;P2;durP2;ratioP2
38805;SDS011;25635;51.146;17.162;2022-09-03T00:08:16;5.10;;;1.70;;
38805;SDS011;25635;51.146;17.162;2022-09-03T00:16:49;6.05;;;2.85;;
38805;SDS011;25635;51.146;17.162;2022-09-03T00:19:23;7.28;;;2.87;;
38805;SDS011;25635;51.146;17.162;2022-09-03T00:22:04;7.17;;;3.40;;
38805;SDS011;25635;51.146;17.162;2022-09-03T00:24:54;5.42;;;2.67;;
38805;SDS011;25635;51.146;17.162;2022-09-03T00:27:25;6.22;;;1.90;;
38805;SDS011;25635;51.146;17.162;2022-09-03T00:35:40;5.00;;;1.80;;
38805;SDS011;25635;51.146;17.162;2022-09-03T00:38:08;12.07;;;5.92;;
38805;SDS011;25635;51.146;17.162;2022-09-03T00:57:42;7.37;;;1.60;;
38805;SDS011;25635;51.146;17.162;2022-09-03T01:00:25;5.08;;;1.60;;
38805;SDS011;25635;51.146;17.162;2022-09-03T01:03:08;4.60;;;1.60;;
38805;SDS011;25635;51.146;17.162;2022-09-03T01:05:57;7.47;;;1.85;;
38805;SDS011;25635;51.146;17.162;2022-09-03T01:11:30;5.12;;;2.10;;
38805;SDS011;25635;51.146;17.162;2022-09-03T01:17:07;4.90;;;1.70;;
38805;SDS011;25635;51.146;17.162;2022-09-03T01:19:57;6.72;;;2.00;;
38805;SDS011;25635;51.146;17.162;2022-09-03T01:28:00;5.03;;;2.15;;
38805;SDS011;25635;51.146;17.162;2022-09-03T01:30:32;7.12;;;2.42;;
38805;SDS011;25635;51.146;17.162;2022-09-03T01:35:59;5.47;;;1.90;;
38805;SDS011;25635;51.146;17.162;2022-09-03T01:38:46;7.17;;;2.40;;
38805;SDS011;25635;51.146;17.162;2022-09-03T01:47:51;7.63;;;2.80;;
38805;SDS011;25635;51.146;17.162;2022-09-03T01:58:43;4.33;;;1.95;;
38805;SDS011;25635;51.146;17.162;2022-09-03T02:01:29;8.20;;;2.90;;
38805;SDS011;25635;51.146;17.162;2022-09-03T02:04:20;5.20;;;2.35;;
38805;SDS011;25635;51.146;17.162;2022-09-03T02:06:48;6.58;;;2.00;;
38805;SDS011;25635;51.146;17.162;2022-09-03T02:09:17;5.60;;;2.00;;
38805;SDS011;25635;51.146;17.162;2022-09-03T02:11:45;4.12;;;1.80;;
38805;SDS011;25635;51.146;17.162;2022-09-03T02:14:23;5.60;;;2.30;;
38805;SDS011;25635;51.146;17.162;2022-09-03T02:16:51;6.53;;;2.25;;
38805;SDS011;25635;51.146;17.162;2022-09-03T02:19:19;6.05;;;2.27;;
38805;SDS011;25635;51.146;17.162;2022-09-03T02:21:49;4.47;;;2.00;;
38805;SDS011;25635;51.146;17.162;2022-09-03T02:24:18;5.55;;;2.35;;
38805;SDS011;25635;51.146;17.162;2022-09-03T02:26:44;5.30;;;2.40;;
38805;SDS011;25635;51.146;17.162;2022-09-03T02:29:12;5.72;;;2.20;;
38805;SDS011;25635;51.146;17.162;2022-09-03T02:31:40;5.42;;;2.35;;
38805;SDS011;25635;51.146;17.162;2022-09-03T02:34:06;7.15;;;2.00;;
38805;SDS011;25635;51.146;17.162;2022-09-03T02:36:43;4.65;;;2.00;;
38805;SDS011;25635;51.146;17.162;2022-09-03T02:39:11;5.17;;;1.82;;
38805;SDS011;25635;51.146;17.162;2022-09-03T02:41:39;5.78;;;2.27;;
38805;SDS011;25635;51.146;17.162;2022-09-03T02:44:08;5.20;;;2.10;;
38805;SDS011;25635;51.146;17.162;2022-09-03T02:46:54;4.83;;;2.00;;
38805;SDS011;25635;51.146;17.162;2022-09-03T02:49:20;3.92;;;1.67;;
38805;SDS011;25635;51.146;17.162;2022-09-03T02:51:46;5.67;;;1.92;;
38805;SDS011;25635;51.146;17.162;2022-09-03T02:54:12;5.35;;;1.87;;
38805;SDS011;25635;51.146;17.162;2022-09-03T02:56:39;5.22;;;1.92;;
38805;SDS011;25635;51.146;17.162;2022-09-03T02:59:07;6.15;;;1.95;;
38805;SDS011;25635;51.146;17.162;2022-09-03T03:01:34;5.80;;;2.17;;
38805;SDS011;25635;51.146;17.162;2022-09-03T03:04:02;5.20;;;2.25;;
38805;SDS011;25635;51.146;17.162;2022-09-03T03:06:28;6.90;;;2.55;;
38805;SDS011;25635;51.146;17.162;2022-09-03T03:08:54;7.47;;;2.35;;
38805;SDS011;25635;51.146;17.162;2022-09-03T03:11:22;7.33;;;2.40;;
38805;SDS011;25635;51.146;17.162;2022-09-03T03:13:50;4.70;;;2.17;;
38805;SDS011;25635;51.146;17.162;2022-09-03T03:16:17;6.40;;;2.00;;
38805;SDS011;25635;51.146;17.162;2022-09-03T03:18:44;5.22;;;2.20;;
38805;SDS011;25635;51.146;17.162;2022-09-03T03:21:14;6.42;;;2.17;;
38805;SDS011;25635;51.146;17.162;2022-09-03T03:23:42;7.30;;;2.55;;
38805;SDS011;25635;51.146;17.162;2022-09-03T03:26:11;5.80;;;2.30;;
38805;SDS011;25635;51.146;17.162;2022-09-03T03:28:42;5.83;;;2.30;;
38805;SDS011;25635;51.146;17.162;2022-09-03T03:31:12;4.97;;;2.05;;
38805;SDS011;25635;51.146;17.162;2022-09-03T03:33:41;6.05;;;1.80;;
38805;SDS011;25635;51.146;17.162;2022-09-03T03:38:39;6.28;;;2.40;;
38805;SDS011;25635;51.146;17.162;2022-09-03T03:41:12;9.28;;;2.20;;
38805;SDS011;25635;51.146;17.162;2022-09-03T03:43:40;5.05;;;2.00;;
38805;SDS011;25635;51.146;17.162;2022-09-03T03:46:08;4.65;;;2.15;;
38805;SDS011;25635;51.146;17.162;2022-09-03T03:48:35;5.03;;;2.20;;
38805;SDS011;25635;51.146;17.162;2022-09-03T03:51:03;5.33;;;1.92;;
38805;SDS011;25635;51.146;17.162;2022-09-03T03:53:33;4.65;;;2.00;;
38805;SDS011;25635;51.146;17.162;2022-09-03T03:56:03;5.35;;;2.35;;
38805;SDS011;25635;51.146;17.162;2022-09-03T03:58:34;4.65;;;2.05;;
38805;SDS011;25635;51.146;17.162;2022-09-03T04:01:05;4.85;;;2.20;;
38805;SDS011;25635;51.146;17.162;2022-09-03T04:03:35;4.30;;;1.87;;
38805;SDS011;25635;51.146;17.162;2022-09-03T04:06:02;6.53;;;2.22;;
38805;SDS011;25635;51.146;17.162;2022-09-03T04:08:50;5.90;;;2.10;;
38805;SDS011;25635;51.146;17.162;2022-09-03T04:11:17;6.28;;;2.20;;
38805;SDS011;25635;51.146;17.162;2022-09-03T04:13:46;5.08;;;1.95;;
38805;SDS011;25635;51.146;17.162;2022-09-03T04:18:45;5.17;;;2.08;;
38805;SDS011;25635;51.146;17.162;2022-09-03T04:21:14;5.85;;;2.37;;
38805;SDS011;25635;51.146;17.162;2022-09-03T04:23:47;5.53;;;1.82;;
38805;SDS011;25635;51.146;17.162;2022-09-03T04:26:16;6.28;;;1.87;;
38805;SDS011;25635;51.146;17.162;2022-09-03T04:28:49;4.83;;;1.67;;
38805;SDS011;25635;51.146;17.162;2022-09-03T04:31:16;6.20;;;2.02;;
38805;SDS011;25635;51.146;17.162;2022-09-03T04:33:44;5.40;;;1.75;;
38805;SDS011;25635;51.146;17.162;2022-09-03T04:36:15;5.62;;;2.33;;
38805;SDS011;25635;51.146;17.162;2022-09-03T04:38:45;5.83;;;2.33;;
38805;SDS011;25635;51.146;17.162;2022-09-03T04:41:15;8.28;;;2.60;;
38805;SDS011;25635;51.146;17.162;2022-09-03T04:43:45;6.25;;;2.55;;
38805;SDS011;25635;51.146;17.162;2022-09-03T04:46:13;5.12;;;2.20;;
38805;SDS011;25635;51.146;17.162;2022-09-03T04:48:41;5.20;;;2.30;;
38805;SDS011;25635;51.146;17.162;2022-09-03T04:51:14;6.40;;;2.15;;
38805;SDS011;25635;51.146;17.162;2022-09-03T04:53:40;5.15;;;2.30;;
38805;SDS011;25635;51.146;17.162;2022-09-03T04:56:16;7.50;;;2.27;;
38805;SDS011;25635;51.146;17.162;2022-09-03T04:58:45;6.55;;;2.45;;
38805;SDS011;25635;51.146;17.162;2022-09-03T05:01:17;6.30;;;2.67;;
38805;SDS011;25635;51.146;17.162;2022-09-03T05:03:49;7.45;;;2.62;;
38805;SDS011;25635;51.146;17.162;2022-09-03T05:06:21;5.33;;;2.42;;
38805;SDS011;25635;51.146;17.162;2022-09-03T05:08:54;5.20;;;2.10;;
38805;SDS011;25635;51.146;17.162;2022-09-03T05:11:22;8.08;;;2.20;;
38805;SDS011;25635;51.146;17.162;2022-09-03T05:13:50;7.15;;;2.25;;
38805;SDS011;25635;51.146;17.162;2022-09-03T05:16:19;5.67;;;2.67;;
38805;SDS011;25635;51.146;17.162;2022-09-03T05:18:47;7.92;;;2.37;;
38805;SDS011;25635;51.146;17.162;2022-09-03T05:21:19;5.42;;;2.25;;
38805;SDS011;25635;51.146;17.162;2022-09-03T05:23:46;5.60;;;2.20;;
38805;SDS011;25635;51.146;17.162;2022-09-03T05:26:24;5.35;;;2.27;;
38805;SDS011;25635;51.146;17.162;2022-09-03T05:28:55;7.42;;;2.72;;
38805;SDS011;25635;51.146;17.162;2022-09-03T05:31:28;5.37;;;2.10;;
38805;SDS011;25635;51.146;17.162;2022-09-03T05:33:57;6.83;;;2.10;;
38805;SDS011;25635;51.146;17.162;2022-09-03T05:36:27;8.68;;;2.37;;
38805;SDS011;25635;51.146;17.162;2022-09-03T05:39:03;5.25;;;2.15;;
38805;SDS011;25635;51.146;17.162;2022-09-03T05:41:35;6.75;;;2.65;;
38805;SDS011;25635;51.146;17.162;2022-09-03T05:44:07;6.70;;;2.65;;
38805;SDS011;25635;51.146;17.162;2022-09-03T05:46:34;6.53;;;2.30;;
38805;SDS011;25635;51.146;17.162;2022-09-03T05:49:06;6.00;;;2.47;;
38805;SDS011;25635;51.146;17.162;2022-09-03T05:51:32;5.80;;;2.22;;
38805;SDS011;25635;51.146;17.162;2022-09-03T05:54:00;5.20;;;2.17;;
38805;SDS011;25635;51.146;17.162;2022-09-03T05:56:28;6.85;;;2.20;;
38805;SDS011;25635;51.146;17.162;2022-09-03T05:58:57;5.25;;;1.98;;
38805;SDS011;25635;51.146;17.162;2022-09-03T06:01:30;5.42;;;1.92;;
38805;SDS011;25635;51.146;17.162;2022-09-03T06:04:00;5.50;;;2.25;;
38805;SDS011;25635;51.146;17.162;2022-09-03T06:06:34;5.72;;;2.10;;
38805;SDS011;25635;51.146;17.162;2022-09-03T06:09:04;6.15;;;2.37;;
38805;SDS011;25635;51.146;17.162;2022-09-03T06:11:33;9.13;;;2.47;;
38805;SDS011;25635;51.146;17.162;2022-09-03T06:14:03;5.22;;;2.12;;
38805;SDS011;25635;51.146;17.162;2022-09-03T06:16:33;8.50;;;2.05;;
38805;SDS011;25635;51.146;17.162;2022-09-03T06:19:03;3.95;;;1.77;;
38805;SDS011;25635;51.146;17.162;2022-09-03T06:21:36;6.17;;;2.17;;
38805;SDS011;25635;51.146;17.162;2022-09-03T06:24:05;5.25;;;2.05;;
38805;SDS011;25635;51.146;17.162;2022-09-03T06:26:32;5.35;;;1.92;;
38805;SDS011;25635;51.146;17.162;2022-09-03T06:28:58;5.55;;;1.72;;
38805;SDS011;25635;51.146;17.162;2022-09-03T06:31:24;6.70;;;2.10;;
38805;SDS011;25635;51.146;17.162;2022-09-03T06:33:51;5.55;;;1.98;;
38805;SDS011;25635;51.146;17.162;2022-09-03T06:36:19;7.67;;;2.20;;
38805;SDS011;25635;51.146;17.162;2022-09-03T06:38:47;6.58;;;2.20;;
38805;SDS011;25635;51.146;17.162;2022-09-03T06:41:19;6.53;;;2.22;;
38805;SDS011;25635;51.146;17.162;2022-09-03T06:43:52;7.47;;;2.15;;
38805;SDS011;25635;51.146;17.162;2022-09-03T06:46:27;5.42;;;2.20;;
38805;SDS011;25635;51.146;17.162;2022-09-03T06:48:57;5.50;;;2.22;;
38805;SDS011;25635;51.146;17.162;2022-09-03T06:51:24;4.85;;;1.92;;
38805;SDS011;25635;51.146;17.162;2022-09-03T06:53:53;5.58;;;1.90;;
38805;SDS011;25635;51.146;17.162;2022-09-03T06:56:26;5.22;;;2.00;;
38805;SDS011;25635;51.146;17.162;2022-09-03T06:58:54;7.15;;;2.50;;
38805;SDS011;25635;51.146;17.162;2022-09-03T07:01:23;7.17;;;2.00;;
38805;SDS011;25635;51.146;17.162;2022-09-03T07:03:53;7.53;;;2.08;;
38805;SDS011;25635;51.146;17.162;2022-09-03T07:06:23;5.75;;;2.00;;
38805;SDS011;25635;51.146;17.162;2022-09-03T07:08:52;7.15;;;1.67;;
38805;SDS011;25635;51.146;17.162;2022-09-03T07:11:20;5.97;;;2.12;;
38805;SDS011;25635;51.146;17.162;2022-09-03T07:13:49;5.15;;;2.10;;
38805;SDS011;25635;51.146;17.162;2022-09-03T07:16:17;6.03;;;1.90;;
38805;SDS011;25635;51.146;17.162;2022-09-03T07:19:01;6.37;;;2.05;;
38805;SDS011;25635;51.146;17.162;2022-09-03T07:21:30;5.17;;;2.02;;
38805;SDS011;25635;51.146;17.162;2022-09-03T07:24:00;10.05;;;2.12;;
38805;SDS011;25635;51.146;17.162;2022-09-03T07:26:30;4.85;;;1.80;;
38805;SDS011;25635;51.146;17.162;2022-09-03T07:29:00;7.22;;;1.90;;
38805;SDS011;25635;51.146;17.162;2022-09-03T07:31:28;5.65;;;1.80;;
38805;SDS011;25635;51.146;17.162;2022-09-03T07:33:58;5.50;;;2.00;;
38805;SDS011;25635;51.146;17.162;2022-09-03T07:36:29;5.28;;;2.27;;
38805;SDS011;25635;51.146;17.162;2022-09-03T07:38:57;5.33;;;1.92;;
38805;SDS011;25635;51.146;17.162;2022-09-03T07:41:24;6.50;;;2.20;;
38805;SDS011;25635;51.146;17.162;2022-09-03T07:43:52;7.58;;;2.30;;
38805;SDS011;25635;51.146;17.162;2022-09-03T07:46:19;6.60;;;2.30;;
38805;SDS011;25635;51.146;17.162;2022-09-03T07:48:52;5.40;;;2.02;;
38805;SDS011;25635;51.146;17.162;2022-09-03T07:51:22;8.15;;;2.40;;
38805;SDS011;25635;51.146;17.162;2022-09-03T07:53:52;6.30;;;2.22;;
38805;SDS011;25635;51.146;17.162;2022-09-03T07:56:27;5.92;;;2.02;;
38805;SDS011;25635;51.146;17.162;2022-09-03T07:58:59;5.50;;;2.20;;
38805;SDS011;25635;51.146;17.162;2022-09-03T08:01:26;6.83;;;2.40;;
38805;SDS011;25635;51.146;17.162;2022-09-03T08:03:55;6.10;;;2.30;;
38805;SDS011;25635;51.146;17.162;2022-09-03T08:06:24;8.15;;;2.52;;
38805;SDS011;25635;51.146;17.162;2022-09-03T08:08:56;6.12;;;2.37;;
38805;SDS011;25635;51.146;17.162;2022-09-03T08:11:26;5.83;;;2.50;;
38805;SDS011;25635;51.146;17.162;2022-09-03T08:16:31;7.53;;;2.75;;
38805;SDS011;25635;51.146;17.162;2022-09-03T08:19:00;8.43;;;2.65;;
38805;SDS011;25635;51.146;17.162;2022-09-03T08:21:27;6.42;;;2.72;;
38805;SDS011;25635;51.146;17.162;2022-09-03T08:23:54;8.15;;;2.52;;
38805;SDS011;25635;51.146;17.162;2022-09-03T08:26:28;7.17;;;3.33;;
38805;SDS011;25635;51.146;17.162;2022-09-03T08:28:57;7.60;;;2.30;;
38805;SDS011;25635;51.146;17.162;2022-09-03T08:31:24;8.38;;;2.70;;
38805;SDS011;25635;51.146;17.162;2022-09-03T08:33:52;7.22;;;2.87;;
38805;SDS011;25635;51.146;17.162;2022-09-03T08:36:22;9.00;;;3.08;;
38805;SDS011;25635;51.146;17.162;2022-09-03T08:38:57;9.45;;;2.87;;
38805;SDS011;25635;51.146;17.162;2022-09-03T08:44:56;7.50;;;2.75;;
38805;SDS011;25635;51.146;17.162;2022-09-03T08:58:28;6.83;;;2.70;;
38805;SDS011;25635;51.146;17.162;2022-09-03T09:03:58;4.72;;;2.55;;
38805;SDS011;25635;51.146;17.162;2022-09-03T09:06:59;6.30;;;2.50;;
38805;SDS011;25635;51.146;17.162;2022-09-03T09:12:25;6.00;;;2.77;;
38805;SDS011;25635;51.146;17.162;2022-09-03T09:18:05;6.65;;;3.05;;
38805;SDS011;25635;51.146;17.162;2022-09-03T09:23:23;5.80;;;2.40;;
38805;SDS011;25635;51.146;17.162;2022-09-03T09:28:23;7.33;;;2.75;;
38805;SDS011;25635;51.146;17.162;2022-09-03T09:30:56;7.43;;;3.07;;
38805;SDS011;25635;51.146;17.162;2022-09-03T09:33:22;7.72;;;3.08;;
38805;SDS011;25635;51.146;17.162;2022-09-03T09:35:51;6.42;;;2.30;;
38805;SDS011;25635;51.146;17.162;2022-09-03T09:38:31;9.10;;;2.45;;
38805;SDS011;25635;51.146;17.162;2022-09-03T09:41:07;6.85;;;2.45;;
38805;SDS011;25635;51.146;17.162;2022-09-03T09:43:44;5.62;;;2.17;;
38805;SDS011;25635;51.146;17.162;2022-09-03T09:46:19;8.63;;;2.00;;
38805;SDS011;25635;51.146;17.162;2022-09-03T09:48:51;7.85;;;2.52;;
38805;SDS011;25635;51.146;17.162;2022-09-03T09:51:22;5.53;;;2.10;;
38805;SDS011;25635;51.146;17.162;2022-09-03T09:54:09;5.87;;;2.10;;
38805;SDS011;25635;51.146;17.162;2022-09-03T09:56:41;6.85;;;2.20;;
38805;SDS011;25635;51.146;17.162;2022-09-03T09:59:10;9.18;;;2.20;;
38805;SDS011;25635;51.146;17.162;2022-09-03T10:01:43;7.58;;;2.10;;
38805;SDS011;25635;51.146;17.162;2022-09-03T10:04:19;6.12;;;1.90;;
38805;SDS011;25635;51.146;17.162;2022-09-03T10:07:24;5.28;;;2.10;;
38805;SDS011;25635;51.146;17.162;2022-09-03T10:09:30;7.17;;;2.17;;
38805;SDS011;25635;51.146;17.162;2022-09-03T10:12:20;6.30;;;2.00;;
38805;SDS011;25635;51.146;17.162;2022-09-03T10:14:56;7.45;;;2.45;;
38805;SDS011;25635;51.146;17.162;2022-09-03T10:23:36;9.00;;;2.47;;
38805;SDS011;25635;51.146;17.162;2022-09-03T10:26:23;5.78;;;2.20;;
38805;SDS011;25635;51.146;17.162;2022-09-03T10:28:52;7.42;;;2.40;;
38805;SDS011;25635;51.146;17.162;2022-09-03T10:34:36;7.10;;;2.40;;
38805;SDS011;25635;51.146;17.162;2022-09-03T10:46:22;9.35;;;2.37;;
38805;SDS011;25635;51.146;17.162;2022-09-03T10:51:35;8.95;;;2.37;;
38805;SDS011;25635;51.146;17.162;2022-09-03T11:05:39;5.80;;;2.15;;
38805;SDS011;25635;51.146;17.162;2022-09-03T11:08:22;6.60;;;2.00;;
38805;SDS011;25635;51.146;17.162;2022-09-03T11:11:11;6.20;;;2.50;;
38805;SDS011;25635;51.146;17.162;2022-09-03T11:13:47;6.47;;;2.00;;
38805;SDS011;25635;51.146;17.162;2022-09-03T11:16:31;4.80;;;2.02;;
38805;SDS011;25635;51.146;17.162;2022-09-03T11:19:31;7.55;;;2.20;;
38805;SDS011;25635;51.146;17.162;2022-09-03T11:22:02;6.62;;;1.82;;
38805;SDS011;25635;51.146;17.162;2022-09-03T11:24:31;10.68;;;2.20;;
38805;SDS011;25635;51.146;17.162;2022-09-03T11:27:04;5.62;;;2.33;;
38805;SDS011;25635;51.146;17.162;2022-09-03T11:32:07;7.62;;;2.02;;
38805;SDS011;25635;51.146;17.162;2022-09-03T11:34:48;7.90;;;2.30;;
38805;SDS011;25635;51.146;17.162;2022-09-03T11:40:07;6.97;;;2.20;;
38805;SDS011;25635;51.146;17.162;2022-09-03T11:42:43;5.05;;;2.17;;
38805;SDS011;25635;51.146;17.162;2022-09-03T11:47:55;5.75;;;2.40;;
38805;SDS011;25635;51.146;17.162;2022-09-03T11:50:23;6.35;;;1.90;;
38805;SDS011;25635;51.146;17.162;2022-09-03T11:58:37;8.50;;;2.40;;
38805;SDS011;25635;51.146;17.162;2022-09-03T12:01:08;7.55;;;2.10;;
38805;SDS011;25635;51.146;17.162;2022-09-03T12:09:13;6.80;;;2.27;;
38805;SDS011;25635;51.146;17.162;2022-09-03T12:12:00;7.05;;;2.00;;
38805;SDS011;25635;51.146;17.162;2022-09-03T12:14:32;5.33;;;2.00;;
38805;SDS011;25635;51.146;17.162;2022-09-03T12:20:01;6.22;;;2.47;;
38805;SDS011;25635;51.146;17.162;2022-09-03T12:22:29;5.75;;;2.35;;
38805;SDS011;25635;51.146;17.162;2022-09-03T12:25:13;5.72;;;1.85;;
38805;SDS011;25635;51.146;17.162;2022-09-03T12:27:39;8.20;;;2.17;;
38805;SDS011;25635;51.146;17.162;2022-09-03T12:30:14;8.05;;;2.65;;
38805;SDS011;25635;51.146;17.162;2022-09-03T12:32:44;7.65;;;2.45;;
38805;SDS011;25635;51.146;17.162;2022-09-03T12:35:15;5.22;;;2.00;;
38805;SDS011;25635;51.146;17.162;2022-09-03T12:37:47;7.25;;;2.30;;
38805;SDS011;25635;51.146;17.162;2022-09-03T12:40:21;5.08;;;1.80;;
38805;SDS011;25635;51.146;17.162;2022-09-03T12:42:51;4.55;;;1.98;;
38805;SDS011;25635;51.146;17.162;2022-09-03T12:45:23;8.78;;;2.37;;
38805;SDS011;25635;51.146;17.162;2022-09-03T12:47:51;5.37;;;2.20;;
38805;SDS011;25635;51.146;17.162;2022-09-03T12:50:19;5.05;;;1.98;;
38805;SDS011;25635;51.146;17.162;2022-09-03T12:55:23;4.97;;;2.27;;
38805;SDS011;25635;51.146;17.162;2022-09-03T12:57:58;5.20;;;2.37;;
38805;SDS011;25635;51.146;17.162;2022-09-03T13:00:32;5.58;;;2.45;;
38805;SDS011;25635;51.146;17.162;2022-09-03T13:03:06;5.00;;;2.15;;
38805;SDS011;25635;51.146;17.162;2022-09-03T13:05:44;9.50;;;2.67;;
38805;SDS011;25635;51.146;17.162;2022-09-03T13:08:19;6.33;;;2.30;;
38805;SDS011;25635;51.146;17.162;2022-09-03T13:10:52;6.75;;;2.20;;
38805;SDS011;25635;51.146;17.162;2022-09-03T13:13:47;9.10;;;2.00;;
38805;SDS011;25635;51.146;17.162;2022-09-03T13:21:56;6.80;;;2.40;;
38805;SDS011;25635;51.146;17.162;2022-09-03T13:30:04;7.95;;;2.50;;
38805;SDS011;25635;51.146;17.162;2022-09-03T13:32:52;8.30;;;2.52;;
38805;SDS011;25635;51.146;17.162;2022-09-03T13:35:36;7.65;;;2.30;;
38805;SDS011;25635;51.146;17.162;2022-09-03T13:38:34;7.03;;;2.50;;
38805;SDS011;25635;51.146;17.162;2022-09-03T13:41:15;6.62;;;1.82;;
38805;SDS011;25635;51.146;17.162;2022-09-03T13:46:32;6.97;;;2.00;;
38805;SDS011;25635;51.146;17.162;2022-09-03T13:49:29;8.60;;;2.25;;
38805;SDS011;25635;51.146;17.162;2022-09-03T13:55:53;8.53;;;2.60;;
38805;SDS011;25635;51.146;17.162;2022-09-03T13:59:15;6.97;;;2.47;;
38805;SDS011;25635;51.146;17.162;2022-09-03T14:03:54;9.58;;;2.50;;
38805;SDS011;25635;51.146;17.162;2022-09-03T14:12:18;9.65;;;2.90;;
38805;SDS011;25635;51.146;17.162;2022-09-03T14:18:15;6.85;;;2.50;;
38805;SDS011;25635;51.146;17.162;2022-09-03T14:21:03;5.78;;;2.70;;
38805;SDS011;25635;51.146;17.162;2022-09-03T14:26:21;8.78;;;2.77;;
38805;SDS011;25635;51.146;17.162;2022-09-03T14:28:49;7.05;;;2.70;;
38805;SDS011;25635;51.146;17.162;2022-09-03T14:31:56;6.87;;;2.55;;
38805;SDS011;25635;51.146;17.162;2022-09-03T14:40:27;6.12;;;2.92;;
38805;SDS011;25635;51.146;17.162;2022-09-03T14:49:12;8.03;;;2.52;;
38805;SDS011;25635;51.146;17.162;2022-09-03T15:00:20;6.78;;;2.50;;
38805;SDS011;25635;51.146;17.162;2022-09-03T15:06:02;8.23;;;2.85;;
38805;SDS011;25635;51.146;17.162;2022-09-03T15:11:22;7.97;;;2.60;;
38805;SDS011;25635;51.146;17.162;2022-09-03T15:14:09;6.30;;;2.70;;
38805;SDS011;25635;51.146;17.162;2022-09-03T15:23:08;10.03;;;2.87;;
38805;SDS011;25635;51.146;17.162;2022-09-03T15:34:55;9.53;;;2.60;;
38805;SDS011;25635;51.146;17.162;2022-09-03T15:37:46;8.43;;;2.60;;
38805;SDS011;25635;51.146;17.162;2022-09-03T15:40:27;8.53;;;2.95;;
38805;SDS011;25635;51.146;17.162;2022-09-03T15:43:35;5.85;;;2.60;;
38805;SDS011;25635;51.146;17.162;2022-09-03T15:45:50;5.75;;;2.62;;
38805;SDS011;25635;51.146;17.162;2022-09-03T16:07:53;8.43;;;3.33;;
38805;SDS011;25635;51.146;17.162;2022-09-03T16:10:36;8.40;;;2.83;;
38805;SDS011;25635;51.146;17.162;2022-09-03T16:13:51;8.35;;;2.50;;
38805;SDS011;25635;51.146;17.162;2022-09-03T16:22:12;5.95;;;2.72;;
38805;SDS011;25635;51.146;17.162;2022-09-03T16:25:02;7.72;;;3.10;;
38805;SDS011;25635;51.146;17.162;2022-09-03T16:27:36;5.08;;;2.70;;
38805;SDS011;25635;51.146;17.162;2022-09-03T16:30:10;7.15;;;2.92;;
38805;SDS011;25635;51.146;17.162;2022-09-03T16:47:06;6.87;;;2.80;;
38805;SDS011;25635;51.146;17.162;2022-09-03T16:53:04;8.63;;;2.87;;
38805;SDS011;25635;51.146;17.162;2022-09-03T17:01:23;7.25;;;3.58;;
38805;SDS011;25635;51.146;17.162;2022-09-03T17:13:07;8.20;;;3.52;;
38805;SDS011;25635;51.146;17.162;2022-09-03T17:15:44;11.95;;;4.95;;
38805;SDS011;25635;51.146;17.162;2022-09-03T17:21:17;7.75;;;4.00;;
38805;SDS011;25635;51.146;17.162;2022-09-03T17:35:37;6.50;;;3.35;;
38805;SDS011;25635;51.146;17.162;2022-09-03T17:41:22;6.50;;;3.52;;
38805;SDS011;25635;51.146;17.162;2022-09-03T17:44:22;10.55;;;3.55;;
38805;SDS011;25635;51.146;17.162;2022-09-03T17:55:41;11.73;;;5.10;;
38805;SDS011;25635;51.146;17.162;2022-09-03T18:01:07;8.20;;;4.65;;
38805;SDS011;25635;51.146;17.162;2022-09-03T18:09:04;7.78;;;3.58;;
38805;SDS011;25635;51.146;17.162;2022-09-03T18:12:05;6.62;;;3.10;;
38805;SDS011;25635;51.146;17.162;2022-09-03T18:14:33;9.60;;;3.22;;
38805;SDS011;25635;51.146;17.162;2022-09-03T18:20:02;8.88;;;3.50;;
38805;SDS011;25635;51.146;17.162;2022-09-03T18:22:53;7.67;;;3.70;;
38805;SDS011;25635;51.146;17.162;2022-09-03T18:26:02;7.87;;;4.12;;
38805;SDS011;25635;51.146;17.162;2022-09-03T18:29:02;9.08;;;4.35;;
38805;SDS011;25635;51.146;17.162;2022-09-03T18:31:50;8.30;;;4.78;;
38805;SDS011;25635;51.146;17.162;2022-09-03T18:34:35;8.78;;;4.22;;
38805;SDS011;25635;51.146;17.162;2022-09-03T18:37:21;6.83;;;4.00;;
38805;SDS011;25635;51.146;17.162;2022-09-03T18:40:13;10.68;;;4.22;;
38805;SDS011;25635;51.146;17.162;2022-09-03T18:47:01;7.70;;;3.75;;
38805;SDS011;25635;51.146;17.162;2022-09-03T18:49:20;6.87;;;3.52;;
38805;SDS011;25635;51.146;17.162;2022-09-03T18:52:12;7.30;;;3.72;;
38805;SDS011;25635;51.146;17.162;2022-09-03T18:55:25;9.13;;;3.77;;
38805;SDS011;25635;51.146;17.162;2022-09-03T19:01:42;11.45;;;3.42;;
38805;SDS011;25635;51.146;17.162;2022-09-03T19:10:48;7.80;;;3.75;;
38805;SDS011;25635;51.146;17.162;2022-09-03T19:14:16;9.73;;;3.75;;
38805;SDS011;25635;51.146;17.162;2022-09-03T19:20:32;7.67;;;3.77;;
38805;SDS011;25635;51.146;17.162;2022-09-03T19:23:18;8.78;;;3.70;;
38805;SDS011;25635;51.146;17.162;2022-09-03T19:29:06;10.40;;;3.92;;
38805;SDS011;25635;51.146;17.162;2022-09-03T19:31:55;8.33;;;4.05;;
38805;SDS011;25635;51.146;17.162;2022-09-03T19:34:54;7.58;;;3.77;;
38805;SDS011;25635;51.146;17.162;2022-09-03T19:40:55;8.08;;;3.87;;
38805;SDS011;25635;51.146;17.162;2022-09-03T19:47:03;7.60;;;4.05;;
38805;SDS011;25635;51.146;17.162;2022-09-03T19:50:02;8.85;;;3.85;;
38805;SDS011;25635;51.146;17.162;2022-09-03T19:52:54;9.25;;;4.28;;
38805;SDS011;25635;51.146;17.162;2022-09-03T19:55:59;7.85;;;4.25;;
38805;SDS011;25635;51.146;17.162;2022-09-03T19:58:48;7.67;;;3.60;;
38805;SDS011;25635;51.146;17.162;2022-09-03T20:01:43;6.62;;;3.65;;
38805;SDS011;25635;51.146;17.162;2022-09-03T20:04:38;7.20;;;3.80;;
38805;SDS011;25635;51.146;17.162;2022-09-03T20:07:25;8.53;;;4.08;;
38805;SDS011;25635;51.146;17.162;2022-09-03T20:10:11;11.20;;;4.45;;
38805;SDS011;25635;51.146;17.162;2022-09-03T20:12:51;13.70;;;4.30;;
38805;SDS011;25635;51.146;17.162;2022-09-03T20:24:35;8.85;;;4.22;;
38805;SDS011;25635;51.146;17.162;2022-09-03T20:27:34;9.10;;;4.10;;
38805;SDS011;25635;51.146;17.162;2022-09-03T20:30:14;10.90;;;4.40;;
38805;SDS011;25635;51.146;17.162;2022-09-03T20:35:44;8.15;;;4.05;;
38805;SDS011;25635;51.146;17.162;2022-09-03T20:38:37;9.08;;;4.75;;
38805;SDS011;25635;51.146;17.162;2022-09-03T20:41:16;8.95;;;4.45;;
38805;SDS011;25635;51.146;17.162;2022-09-03T20:47:05;8.15;;;4.22;;
38805;SDS011;25635;51.146;17.162;2022-09-03T20:50:14;9.40;;;4.70;;
38805;SDS011;25635;51.146;17.162;2022-09-03T20:55:42;9.80;;;5.03;;
38805;SDS011;25635;51.146;17.162;2022-09-03T20:58:29;8.18;;;4.60;;
38805;SDS011;25635;51.146;17.162;2022-09-03T21:01:07;9.00;;;4.90;;
38805;SDS011;25635;51.146;17.162;2022-09-03T21:11:50;8.18;;;4.28;;
38805;SDS011;25635;51.146;17.162;2022-09-03T21:14:36;9.53;;;4.50;;
38805;SDS011;25635;51.146;17.162;2022-09-03T21:20:04;11.88;;;4.33;;
38805;SDS011;25635;51.146;17.162;2022-09-03T21:25:27;8.28;;;4.60;;
38805;SDS011;25635;51.146;17.162;2022-09-03T21:28:21;8.33;;;4.42;;
38805;SDS011;25635;51.146;17.162;2022-09-03T21:31:29;8.20;;;3.98;;
38805;SDS011;25635;51.146;17.162;2022-09-03T21:33:45;9.00;;;4.35;;
38805;SDS011;25635;51.146;17.162;2022-09-03T21:36:28;9.13;;;4.33;;
38805;SDS011;25635;51.146;17.162;2022-09-03T21:39:06;8.48;;;4.37;;
38805;SDS011;25635;51.146;17.162;2022-09-03T21:41:43;8.85;;;4.15;;
38805;SDS011;25635;51.146;17.162;2022-09-03T21:44:15;9.65;;;4.72;;
38805;SDS011;25635;51.146;17.162;2022-09-03T21:46:51;9.83;;;4.78;;
38805;SDS011;25635;51.146;17.162;2022-09-03T21:49:22;10.03;;;4.12;;